Time;durP1;ratioP1;P1;durP2;ratioP2;P2;SDS_P1;SDS_P2;PMS_P1;PMS_P2;Temp;Humidity;BMP_temperature;BMP_pressure;BME280_temperature;BME280_humidity;BME280_pressure;Samples;Min_cycle;Max_cycle;Signal;HPM_P1;HPM_P2
2022/04/26 03:36:21;;;;;;;;;;;282.30;2278.40;;;;;;5114198;28;19923;-74
2022/04/26 03:38:48;;;;;;;;;;;282.40;2278.40;;;;;;5114155;28;19916;-73
2022/04/26 03:41:16;;;;;;;;;;;282.40;2278.40;;;;;;5130083;28;19903;-75
2022/04/26 03:43:42;;;;;;;;;;;282.40;2278.40;;;;;;5114510;28;19904;-74
2022/04/26 03:46:08;;;;;;;;;;;282.40;2278.40;;;;;;5117379;28;20002;-75
2022/04/26 03:48:33;;;;;;;;;;;282.40;2278.40;;;;;;5118378;28;19911;-74
2022/04/26 03:51:00;;;;;;;;;;;282.30;2278.40;;;;;;5118364;28;19994;-75
2022/04/26 03:53:25;;;;;;;;;;;282.30;2278.40;;;;;;5118366;28;19904;-74
2022/04/26 03:55:51;;;;;;;;;;;282.30;2278.40;;;;;;5118318;28;20475;-74
2022/04/26 03:58:17;;;;;;;;;;;282.40;2278.40;;;;;;5118124;28;19915;-74
2022/04/26 04:00:43;;;;;;;;;;;282.30;2278.40;;;;;;5118113;28;19903;-73
2022/04/26 04:03:08;;;;;;;;;;;282.40;2278.40;;;;;;5118113;28;20283;-73
2022/04/26 04:05:34;;;;;;;;;;;282.30;2278.40;;;;;;5118132;28;19911;-74
2022/04/26 04:08:00;;;;;;;;;;;282.30;2278.40;;;;;;5118087;28;19904;-73
2022/04/26 04:10:26;;;;;;;;;;;307.20;2304.00;;;;;;5116599;28;19911;-74
2022/04/26 04:12:52;;;;;;;;;;;282.40;2278.40;;;;;;5117901;28;19904;-73
2022/04/26 04:15:18;;;;;;;;;;;282.40;2278.40;;;;;;5117055;28;19922;-76
2022/04/26 04:17:43;;;;;;;;;;;282.50;2278.40;;;;;;5116128;28;20348;-75
2022/04/26 04:20:10;;;;;;;;;;;282.50;2278.40;;;;;;5116346;28;19911;-75
2022/04/26 04:22:36;;;;;;;;;;;282.50;2278.40;;;;;;5116434;28;20298;-75
2022/04/26 04:25:01;;;;;;;;;;;307.20;2304.00;;;;;;5116038;28;19911;-75
2022/04/26 04:27:27;;;;;;;;;;;307.20;2304.00;;;;;;5116336;28;19923;-71
2022/04/26 04:29:53;;;;;;;;;;;307.20;2304.00;;;;;;5116111;28;19908;-75
2022/04/26 04:32:18;;;;;;;;;;;307.30;2304.00;;;;;;5117201;28;20391;-75
2022/04/26 04:34:44;;;;;;;;;;;307.40;2304.00;;;;;;5117175;28;19958;-74
2022/04/26 04:37:10;;;;;;;;;;;307.40;2304.00;;;;;;5117323;28;19904;-75
2022/04/26 04:39:35;;;;;;;;;;;307.50;2304.00;;;;;;5099061;28;19939;-75
2022/04/26 04:42:02;;;;;;;;;;;307.60;2304.00;;;;;;5117291;28;20347;-74
2022/04/26 04:44:27;;;;;;;;;;;307.60;2304.00;;;;;;5117250;28;19907;-73
2022/04/26 04:46:58;;;;;;;;;;;307.70;2304.00;;;;;;5098947;28;19953;-73
2022/04/26 04:49:23;;;;;;;;;;;307.70;2304.00;;;;;;5117698;28;19904;-74
2022/04/26 04:51:49;;;;;;;;;;;307.70;2304.00;;;;;;5098810;28;20351;-72
2022/04/26 04:54:14;;;;;;;;;;;307.80;2304.00;;;;;;5116986;28;20432;-73
2022/04/26 04:56:40;;;;;;;;;;;307.80;2304.00;;;;;;5116290;28;20286;-75
2022/04/26 04:59:07;;;;;;;;;;;307.90;2304.00;;;;;;5116752;28;19947;-74
2022/04/26 05:01:32;;;;;;;;;;;308.00;2304.00;;;;;;5116860;28;19904;-76
2022/04/26 05:03:58;;;;;;;;;;;308.00;2304.00;;;;;;5097387;28;19914;-75
2022/04/26 05:06:24;;;;;;;;;;;308.00;2304.00;;;;;;5116689;28;19926;-74
2022/04/26 05:08:49;;;;;;;;;;;308.10;2304.00;;;;;;5116650;28;19925;-74
2022/04/26 05:11:15;;;;;;;;;;;332.80;2329.60;;;;;;5116605;28;20031;-75
2022/04/26 05:13:41;;;;;;;;;;;333.20;2329.60;;;;;;5116627;28;20378;-74
2022/04/26 05:16:07;;;;;;;;;;;333.10;2329.60;;;;;;5098253;28;19910;-75
2022/04/26 05:18:32;;;;;;;;;;;333.20;2329.60;;;;;;5116478;28;19918;-75
2022/04/26 05:20:58;;;;;;;;;;;333.30;2329.60;;;;;;5098264;28;20375;-75
2022/04/26 05:26:08;;;;;;;;;;;333.70;2329.60;;;;;;5116404;28;19915;-77
2022/04/26 05:28:33;;;;;;;;;;;358.40;2329.60;;;;;;5098006;28;20272;-75
2022/04/26 05:30:59;;;;;;;;;;;358.40;2329.60;;;;;;5097679;28;19911;-75
2022/04/26 05:33:25;;;;;;;;;;;358.50;2329.60;;;;;;5116305;28;19944;-75
2022/04/26 05:35:51;;;;;;;;;;;358.60;2329.60;;;;;;5097836;28;19922;-75
2022/04/26 05:38:17;;;;;;;;;;;358.70;2329.60;;;;;;5097747;28;19912;-75
2022/04/26 05:40:43;;;;;;;;;;;358.80;2329.60;;;;;;5097381;28;20378;-76
2022/04/26 05:43:09;;;;;;;;;;;358.90;2329.60;;;;;;5096560;28;19908;-76
2022/04/26 05:45:34;;;;;;;;;;;359.00;2329.60;;;;;;5114940;28;19910;-76
2022/04/26 05:48:00;;;;;;;;;;;359.10;2329.60;;;;;;5114771;28;19994;-75
2022/04/26 05:50:26;;;;;;;;;;;359.10;2329.60;;;;;;5114746;28;19904;-76
2022/04/26 05:52:51;;;;;;;;;;;359.10;2329.60;;;;;;5115270;28;19915;-75
2022/04/26 05:55:17;;;;;;;;;;;359.20;2329.60;;;;;;5115660;28;19958;-76
2022/04/26 05:57:44;;;;;;;;;;;359.30;2329.60;;;;;;5114915;28;19959;-76
2022/04/26 06:00:11;;;;;;;;;;;359.30;2329.60;;;;;;5114306;28;19904;-76
2022/04/26 06:02:37;;;;;;;;;;;359.20;2329.60;;;;;;5113982;28;19912;-78
2022/04/26 06:05:03;;;;;;;;;;;359.30;2329.60;;;;;;5113936;28;19903;-77
2022/04/26 06:07:29;;;;;;;;;;;384.00;2329.60;;;;;;5113505;28;20261;-77
2022/04/26 06:09:57;;;;;;;;;;;384.10;2329.60;;;;;;5114842;28;19904;-77
2022/04/26 06:12:29;;;;;;;;;;;384.10;2329.60;;;;;;5112672;28;19960;-78
2022/04/26 06:14:55;;;;;;;;;;;384.20;2329.60;;;;;;5115091;28;19903;-79
2022/04/26 06:17:21;;;;;;;;;;;384.30;2329.60;;;;;;5093830;28;19903;-77
2022/04/26 06:19:47;;;;;;;;;;;384.40;2329.60;;;;;;5114845;28;20056;-79
2022/04/26 06:22:13;;;;;;;;;;;384.40;2329.60;;;;;;5096371;28;19911;-78
2022/04/26 06:24:38;;;;;;;;;;;384.50;2329.60;;;;;;5096278;28;19903;-79
2022/04/26 06:27:04;;;;;;;;;;;384.70;2329.60;;;;;;5096464;28;20023;-79
2022/04/26 06:29:30;;;;;;;;;;;384.90;2329.60;;;;;;5096644;28;19904;-78
2022/04/26 06:31:55;;;;;;;;;;;409.60;2355.20;;;;;;5096721;28;19910;-77
2022/04/26 06:34:21;;;;;;;;;;;409.60;2355.20;;;;;;5096443;28;19923;-77
2022/04/26 06:36:47;;;;;;;;;;;409.70;2355.20;;;;;;5096579;28;19907;-76
2022/04/26 06:39:12;;;;;;;;;;;409.80;2355.20;;;;;;5114489;28;20321;-77
2022/04/26 06:41:38;;;;;;;;;;;409.80;2355.20;;;;;;5114966;28;19942;-76
2022/04/26 06:44:04;;;;;;;;;;;410.00;2355.20;;;;;;5096419;28;19903;-76
2022/04/26 06:46:30;;;;;;;;;;;409.80;2355.20;;;;;;5114892;28;20311;-78
2022/04/26 06:48:58;;;;;;;;;;;410.10;2355.20;;;;;;5113922;28;19907;-76
2022/04/26 06:51:24;;;;;;;;;;;410.10;2355.20;;;;;;5095844;28;20416;-76
2022/04/26 06:53:51;;;;;;;;;;;410.40;2355.20;;;;;;5096490;28;20279;-76
2022/04/26 06:56:16;;;;;;;;;;;410.40;2355.20;;;;;;5095853;28;20391;-76
2022/04/26 06:58:42;;;;;;;;;;;410.50;2355.20;;;;;;5096046;28;19915;-76
2022/04/26 07:01:08;;;;;;;;;;;435.30;2355.20;;;;;;5096313;28;20298;-76
2022/04/26 07:03:33;;;;;;;;;;;435.40;2355.20;;;;;;5096512;28;20356;-78
2022/04/26 07:05:59;;;;;;;;;;;435.60;2355.20;;;;;;5114160;28;19950;-76
2022/04/26 07:08:25;;;;;;;;;;;435.70;2355.20;;;;;;5114457;28;19998;-75
2022/04/26 07:10:50;;;;;;;;;;;435.90;2355.20;;;;;;5114541;28;19939;-75
2022/04/26 07:13:19;;;;;;;;;;;436.10;2355.20;;;;;;5114718;28;19910;-76
2022/04/26 07:15:45;;;;;;;;;;;461.00;2380.80;;;;;;5096138;28;19907;-77
2022/04/26 07:18:12;;;;;;;;;;;461.30;2380.80;;;;;;5114097;28;19972;-78
2022/04/26 07:20:38;;;;;;;;;;;461.40;2380.80;;;;;;5095532;28;20229;-77
2022/04/26 07:23:04;;;;;;;;;;;461.50;2380.80;;;;;;5114166;28;19966;-77
2022/04/26 07:25:29;;;;;;;;;;;486.50;2380.80;;;;;;5114061;28;20351;-77
2022/04/26 07:27:55;;;;;;;;;;;486.70;2380.80;;;;;;5095763;28;19910;-77
2022/04/26 07:30:21;;;;;;;;;;;486.80;2380.80;;;;;;5095751;28;19915;-76
2022/04/26 07:35:30;;;;;;;;;;;487.30;2304.00;;;;;;5113989;28;19968;-76
2022/04/26 07:38:06;;;;;;;;;;;512.00;2227.20;;;;;;5095643;28;19911;-77
2022/04/26 07:40:32;;;;;;;;;;;512.20;2227.20;;;;;;5095791;28;19943;-75
2022/04/26 07:42:58;;;;;;;;;;;512.20;2150.40;;;;;;5114049;28;19914;-76
2022/04/26 07:45:25;;;;;;;;;;;512.30;2150.40;;;;;;5095843;28;19903;-76
2022/04/26 07:47:51;;;;;;;;;;;512.90;2073.60;;;;;;5095714;28;19904;-76
2022/04/26 07:50:18;;;;;;;;;;;537.60;2022.40;;;;;;5095818;28;20423;-76
2022/04/26 07:52:44;;;;;;;;;;;512.90;1996.80;;;;;;5114083;28;19903;-76
2022/04/26 07:55:10;;;;;;;;;;;538.00;1996.80;;;;;;5095736;28;20259;-76
2022/04/26 07:57:38;;;;;;;;;;;538.00;1920.00;;;;;;5095564;28;20367;-77
2022/04/26 08:00:05;;;;;;;;;;;537.70;1894.40;;;;;;5113806;28;19907;-76
2022/04/26 08:02:30;;;;;;;;;;;537.90;1920.00;;;;;;5113625;28;19904;-78
2022/04/26 08:05:01;;;;;;;;;;;538.10;1920.00;;;;;;5113926;28;19910;-74
2022/04/26 08:07:28;;;;;;;;;;;537.90;1920.00;;;;;;5113910;28;19950;-76
2022/04/26 08:09:55;;;;;;;;;;;538.40;1868.80;;;;;;5113746;28;19910;-75
2022/04/26 08:12:21;;;;;;;;;;;538.50;1817.60;;;;;;5095686;28;19926;-74
2022/04/26 08:14:46;;;;;;;;;;;563.30;1792.00;;;;;;5095559;28;20364;-74
2022/04/26 08:17:15;;;;;;;;;;;564.00;1766.40;;;;;;5095445;28;20249;-75
2022/04/26 08:19:43;;;;;;;;;;;588.80;1715.20;;;;;;5095155;28;19958;-75
2022/04/26 08:22:09;;;;;;;;;;;614.40;1638.40;;;;;;5113823;28;19904;-74
2022/04/26 08:27:22;;;;;;;2.88;2.03;;;640.70;1459.20;;;;;;5113593;28;20280;-75
2022/04/26 08:29:48;;;;;;;4.72;2.00;;;665.70;1433.60;;;;;;5087707;28;20031;-78
2022/04/26 08:32:14;;;;;;;8.32;2.88;;;666.20;1408.00;;;;;;5108919;28;20051;-75
2022/04/26 08:34:41;;;;;;;4.05;2.67;;;691.40;1408.00;;;;;;5114167;28;20071;-76
2022/04/26 08:37:08;;;;;;;3.83;2.13;;;666.40;1356.80;;;;;;5115130;28;20039;-76
2022/04/26 08:39:35;;;;;;;1.60;1.40;;;665.60;1382.40;;;;;;5096078;28;20031;-76
2022/04/26 08:42:02;;;;;;;3.35;1.48;;;640.70;1408.00;;;;;;5112042;28;20081;-76
2022/04/26 08:44:29;;;;;;;5.20;2.30;;;640.30;1382.40;;;;;;5114326;28;20064;-76
2022/04/26 08:52:29;;;;;;;6.38;1.60;;;614.80;1433.60;;;;;;5095080;28;20107;-76
2022/04/26 08:54:55;;;;;;;2.58;1.08;;;614.90;1459.20;;;;;;5093800;28;20110;-74
2022/04/26 08:57:22;;;;;;;2.83;1.80;;;614.90;1408.00;;;;;;5094887;28;20099;-77
2022/04/26 08:59:52;;;;;;;4.70;2.20;;;614.90;1459.20;;;;;;5094780;28;20042;-75
2022/04/26 09:02:19;;;;;;;;;;;615.00;1484.80;;;;;;5095160;28;20028;-74
2022/04/26 09:05:08;;;;;;;4.38;2.10;;;614.80;1484.80;;;;;;5094766;28;19942;-74
2022/04/26 09:07:39;;;;;;;3.45;2.38;;;614.80;1484.80;;;;;;5094836;28;20028;-75
2022/04/26 09:10:16;;;;;;;2.75;1.95;;;614.50;1484.80;;;;;;5093198;28;20047;-75
2022/04/26 09:13:09;;;;;;;4.55;1.90;;;614.80;1484.80;;;;;;5094326;28;20054;-73
2022/04/26 09:15:43;;;;;;;5.32;2.20;;;614.80;1484.80;;;;;;5100648;28;20028;-74
2022/04/26 09:18:20;;;;;;;4.00;2.33;;;614.80;1510.40;;;;;;5099299;28;20036;-78
2022/04/26 09:20:48;;;;;;;4.60;2.17;;;614.90;1484.80;;;;;;5113991;28;20028;-74
2022/04/26 09:23:25;;;;;;;3.15;2.10;;;615.00;1408.00;;;;;;5114439;28;20023;-78
2022/04/26 09:26:08;;;;;;;3.90;2.00;;;615.10;1408.00;;;;;;5076425;28;20020;-78
2022/04/26 09:28:35;;;;;;;;;;;615.10;1433.60;;;;;;5094987;28;20408;-75
2022/04/26 09:31:02;;;;;;;4.57;2.80;;;615.30;1433.60;;;;;;5094439;28;19904;-78
2022/04/26 09:33:31;;;;;;;3.05;2.38;;;615.20;1459.20;;;;;;5076178;28;20043;-79
2022/04/26 09:36:03;;;;;;;3.38;2.53;;;614.90;1484.80;;;;;;5094181;28;20505;-77
2022/04/26 09:38:32;;;;;;;6.10;2.70;;;615.20;1433.60;;;;;;5094340;28;20036;-77
2022/04/26 09:41:04;;;;;;;3.90;2.20;;;615.30;1433.60;;;;;;5093836;28;20020;-74
2022/04/26 09:43:30;;;;;;;2.40;1.77;;;615.10;1433.60;;;;;;5094030;28;20028;-74
2022/04/26 09:45:58;;;;;;;3.88;1.80;;;615.00;1433.60;;;;;;5093857;28;20027;-72
2022/04/26 09:48:27;;;;;;;3.88;2.00;;;615.10;1408.00;;;;;;5093694;28;20354;-75
2022/04/26 09:50:53;;;;;;;13.55;9.25;;;615.20;1382.40;;;;;;5092390;28;20081;-74
2022/04/26 09:53:19;;;;;;;5.47;2.10;;;614.80;1433.60;;;;;;5093603;28;20031;-74
2022/04/26 09:55:47;;;;;;;4.75;2.20;;;615.20;1408.00;;;;;;5093876;28;20096;-76
2022/04/26 09:58:18;;;;;;;4.22;1.60;;;615.30;1382.40;;;;;;5093419;28;20024;-76
2022/04/26 10:00:48;;;;;;;4.95;1.15;;;640.10;1382.40;;;;;;5075247;28;20438;-75
2022/04/26 10:03:20;;;;;;;4.20;2.13;;;615.30;1305.60;;;;;;5093251;28;20472;-74
2022/04/26 10:05:49;;;;;;;3.95;1.92;;;615.30;1356.80;;;;;;5075222;28;20036;-73
2022/04/26 10:08:18;;;;;;;3.50;2.17;;;640.10;1305.60;;;;;;5092625;28;20134;-76
2022/04/26 10:10:44;;;;;;;3.20;2.25;;;615.20;1356.80;;;;;;5101889;28;20445;-76
2022/04/26 10:13:32;;;;;;;4.03;1.92;;;614.90;1382.40;;;;;;5099725;28;20026;-76
2022/04/26 10:16:06;;;;;;;3.22;1.90;;;614.80;1408.00;;;;;;5111312;28;20028;-77
2022/04/26 10:18:47;;;;;;;3.80;2.08;;;589.60;1408.00;;;;;;5113660;28;20032;-76
2022/04/26 10:21:38;;;;;;;1.88;1.63;;;614.40;1382.40;;;;;;5095305;28;20503;-76
2022/04/26 10:24:25;;;;;;;2.10;1.20;;;589.30;1382.40;;;;;;5111945;28;20028;-74
2022/04/26 10:26:52;;;;;;;2.35;0.90;;;589.50;1331.20;;;;;;5106298;28;20026;-76
2022/04/26 10:29:24;;;;;;;3.80;1.30;;;614.70;1280.00;;;;;;5093243;28;20028;-78
2022/04/26 10:32:00;;;;;;;4.03;1.50;;;615.00;1305.60;;;;;;5091736;28;20024;-77
2022/04/26 10:34:30;;;;;;;2.30;1.35;;;615.30;1305.60;;;;;;5092860;28;20052;-78
2022/04/26 10:37:06;;;;;;;5.20;1.45;;;640.20;1280.00;;;;;;5092869;28;20028;-76
2022/04/26 10:39:37;;;;;;;2.60;1.52;;;640.40;1280.00;;;;;;5095453;28;20124;-75
2022/04/26 10:42:16;;;;;;;4.22;1.25;;;640.60;1228.80;;;;;;5094682;28;20457;-77
2022/04/26 10:44:49;;;;;;;2.67;1.00;;;615.30;1203.20;;;;;;5113003;28;20024;-75
2022/04/26 10:47:18;;;;;;;3.83;1.42;;;614.70;1254.40;;;;;;5106236;28;20095;-78
2022/04/26 10:49:48;;;;;;;7.03;1.90;;;589.70;1305.60;;;;;;5103221;28;20178;-77
2022/04/26 10:52:18;;;;;;;5.90;2.17;;;614.50;1331.20;;;;;;5111333;28;20028;-76
2022/04/26 10:55:05;;;;;;;2.53;1.52;;;614.90;1280.00;;;;;;5112374;28;20059;-74
2022/04/26 10:57:39;;;;;;;3.00;1.17;;;615.10;1305.60;;;;;;5095978;28;20124;-77
2022/04/26 11:00:18;;;;;;;4.13;1.38;;;615.10;1305.60;;;;;;5092572;28;20376;-77
2022/04/26 11:02:50;;;;;;;2.35;1.30;;;615.00;1280.00;;;;;;5102357;28;20468;-74
2022/04/26 11:05:26;;;;;;;4.32;1.30;;;614.50;1331.20;;;;;;5112852;28;20024;-74
2022/04/26 11:07:54;;;;;;;2.90;1.20;;;615.20;1280.00;;;;;;5094387;28;20371;-73
2022/04/26 11:10:26;;;;;;;6.28;1.30;;;640.10;1254.40;;;;;;5112623;28;20112;-76
2022/04/26 11:12:52;;;;;;;2.88;1.42;;;640.30;1254.40;;;;;;5113099;28;20050;-76
2022/04/26 11:15:19;;;;;;;4.50;1.65;;;640.90;1203.20;;;;;;5112591;28;20023;-75
2022/04/26 11:17:47;;;;;;;2.58;1.50;;;640.90;1254.40;;;;;;5094439;28;20494;-76
2022/04/26 11:20:18;;;;;;;2.72;1.40;;;640.40;1254.40;;;;;;5112631;28;20046;-76
2022/04/26 11:22:52;;;;;;;2.22;1.00;;;640.20;1254.40;;;;;;5112717;28;20023;-74
2022/04/26 11:28:09;;;;;;;2.75;1.55;;;665.70;1228.80;;;;;;5113037;28;20145;-75
2022/04/26 11:30:38;;;;;;;3.75;1.42;;;640.90;1177.60;;;;;;5112287;28;20019;-75
2022/04/26 11:33:22;;;;;;;2.67;1.30;;;666.00;1177.60;;;;;;5112446;28;20030;-74
2022/04/26 11:35:57;;;;;;;5.70;1.30;;;666.00;1177.60;;;;;;5112015;28;20052;-71
2022/04/26 11:38:23;;;;;;;6.88;4.03;;;640.50;1177.60;;;;;;5112356;28;20071;-73
2022/04/26 11:41:00;;;;;;;9.35;4.25;;;640.30;1203.20;;;;;;5112216;28;20050;-74
2022/04/26 11:43:31;;;;;;;3.20;1.85;;;640.10;1203.20;;;;;;5093609;28;20118;-73
2022/04/26 11:45:58;;;;;;;3.97;1.45;;;640.30;1177.60;;;;;;5110145;28;20012;-74
2022/04/26 11:48:47;;;;;;;2.28;1.17;;;615.30;1228.80;;;;;;5092096;28;20672;-74
2022/04/26 11:51:14;;;;;;;3.92;1.40;;;614.90;1203.20;;;;;;5110683;28;20024;-74
2022/04/26 11:53:39;;;;;;;5.82;4.10;;;614.60;1254.40;;;;;;5110515;28;20058;-74
2022/04/26 11:56:06;;;;;;;3.25;1.33;;;614.50;1254.40;;;;;;5111358;28;20043;-74
2022/04/26 11:58:34;;;;;;;1.65;1.10;;;589.70;1254.40;;;;;;5112035;28;20043;-74
2022/04/26 12:01:11;;;;;;;5.25;2.67;;;589.50;1280.00;;;;;;5094054;28;20051;-73
2022/04/26 12:03:44;;;;;;;5.00;1.70;;;615.00;1280.00;;;;;;5111582;28;20024;-73
2022/04/26 12:06:11;;;;;;;6.07;2.03;;;640.30;1254.40;;;;;;5112841;28;20030;-73
2022/04/26 12:08:44;;;;;;;1.88;1.10;;;640.70;1177.60;;;;;;5117136;28;20032;-74
2022/04/26 12:11:30;;;;;;;5.00;1.88;;;665.80;1203.20;;;;;;5117480;28;20020;-73
2022/04/26 12:14:06;;;;;;;3.63;1.60;;;665.70;1177.60;;;;;;5117534;28;20024;-73
2022/04/26 12:16:36;;;;;;;3.28;1.92;;;665.80;1228.80;;;;;;5117061;28;20026;-73
2022/04/26 12:19:03;;;;;;;3.80;1.85;;;640.80;1203.20;;;;;;5098905;28;20483;-74
2022/04/26 12:21:46;;;;;;;3.35;1.95;;;640.20;1203.20;;;;;;5117184;28;20383;-75
2022/04/26 12:24:17;;;;;;;4.95;2.05;;;615.20;1228.80;;;;;;5117287;28;20049;-74
2022/04/26 12:26:59;;;;;;;4.50;2.00;;;614.90;1280.00;;;;;;5116953;28;20139;-74
2022/04/26 12:29:40;;;;;;;3.55;1.70;;;615.00;1254.40;;;;;;5117080;28;20042;-74
2022/04/26 12:32:26;;;;;;;4.60;1.58;;;640.40;1203.20;;;;;;5117482;28;20468;-74
2022/04/26 12:34:55;;;;;;;2.88;1.73;;;640.90;1203.20;;;;;;5114833;28;20071;-74
2022/04/26 12:37:29;;;;;;;2.58;1.60;;;640.20;1203.20;;;;;;5115260;28;20060;-76
2022/04/26 12:39:58;;;;;;;14.45;2.33;;;615.10;1228.80;;;;;;5096284;28;20063;-73
2022/04/26 12:42:27;;;;;;;6.82;1.60;;;640.50;1228.80;;;;;;5096323;28;20016;-75
2022/04/26 12:44:57;;;;;;;5.13;1.30;;;665.90;1203.20;;;;;;5077995;28;20028;-73
2022/04/26 12:50:36;;;;;;;2.60;1.30;;;691.20;1152.00;;;;;;5114117;28;20023;-76
2022/04/26 12:53:04;;;;;;;3.97;1.77;;;691.40;1126.40;;;;;;5105327;28;20031;-77
2022/04/26 12:55:32;;;;;;;4.20;1.73;;;665.90;1152.00;;;;;;5097045;28;20096;-77
2022/04/26 12:58:09;;;;;;;10.35;4.60;;;665.70;1177.60;;;;;;5114818;28;20042;-75
2022/04/26 13:00:41;;;;;;;7.85;2.88;;;640.70;1177.60;;;;;;5110617;28;20023;-77
2022/04/26 13:03:07;;;;;;;2.47;1.50;;;665.90;1203.20;;;;;;5114053;28;20024;-76
2022/04/26 13:05:44;;;;;;;3.80;1.50;;;666.20;1152.00;;;;;;5096319;28;20482;-76
2022/04/26 13:08:12;;;;;;;3.33;1.80;;;691.30;1126.40;;;;;;5112548;28;20016;-77
2022/04/26 13:10:41;;;;;;;1.98;1.20;;;691.60;1100.80;;;;;;5114383;28;20023;-76
2022/04/26 13:13:09;;;;;;;2.33;1.00;;;691.90;1075.20;;;;;;5114887;28;20024;-76
2022/04/26 13:15:35;;;;;;;2.53;0.90;;;692.10;1075.20;;;;;;5114413;28;20106;-77
2022/04/26 13:18:03;;;;;;;2.25;0.90;;;716.80;1075.20;;;;;;5113922;28;20028;-77
2022/04/26 13:20:29;;;;;;;1.92;1.00;;;716.90;1075.20;;;;;;5114209;28;20471;-78
2022/04/26 13:22:56;;;;;;;1.92;0.70;;;691.60;1075.20;;;;;;5096435;28;20608;-77
2022/04/26 13:25:22;;;;;;;3.17;0.90;;;666.20;1075.20;;;;;;5114738;28;20019;-77
2022/04/26 13:27:48;;;;;;;2.25;1.05;;;691.30;1100.80;;;;;;5095718;28;20603;-77
2022/04/26 13:30:15;;;;;;;2.65;0.90;;;691.50;1126.40;;;;;;5095695;28;20077;-76
2022/04/26 13:32:41;;;;;;;2.58;1.00;;;666.10;1075.20;;;;;;5113994;28;20039;-80
2022/04/26 13:35:08;;;;;;;1.95;0.77;;;666.00;1126.40;;;;;;5103565;28;20044;-78
2022/04/26 13:37:35;;;;;;;2.47;0.60;;;640.90;1100.80;;;;;;5113439;28;20142;-77
2022/04/26 13:40:02;;;;;;;1.77;0.88;;;640.60;1152.00;;;;;;5095578;28;20076;-77
2022/04/26 13:42:30;;;;;;;3.28;0.82;;;640.70;1126.40;;;;;;5113878;28;20027;-77
2022/04/26 13:44:58;;;;;;;2.13;0.80;;;640.60;1126.40;;;;;;5114523;28;20020;-78
2022/04/26 13:47:24;;;;;;;2.42;0.80;;;640.20;1126.40;;;;;;5114254;28;20047;-78
2022/04/26 13:49:52;;;;;;;2.92;1.42;;;615.20;1152.00;;;;;;5096136;28;20023;-80
2022/04/26 13:52:20;;;;;;;5.68;1.63;;;615.10;1203.20;;;;;;5114226;28;20038;-77
2022/04/26 13:54:46;;;;;;;4.28;1.40;;;614.90;1203.20;;;;;;5096084;28;20106;-78
2022/04/26 13:57:12;;;;;;;1.83;0.90;;;615.00;1203.20;;;;;;5114960;28;20059;-79
2022/04/26 13:59:38;;;;;;;2.67;1.40;;;640.30;1177.60;;;;;;5114941;28;20057;-79
2022/04/26 14:02:06;;;;;;;3.00;1.05;;;640.30;1152.00;;;;;;5094524;28;20726;-77
2022/04/26 14:04:32;;;;;;;1.73;1.10;;;614.90;1177.60;;;;;;5090719;28;20051;-78
2022/04/26 14:06:58;;;;;;;5.25;1.30;;;614.60;1228.80;;;;;;5095281;28;20430;-78
2022/04/26 14:09:24;;;;;;;3.60;1.13;;;614.40;1280.00;;;;;;5094931;28;20547;-78
2022/04/26 14:11:53;;;;;;;3.90;1.13;;;589.70;1280.00;;;;;;5113713;28;20024;-78
2022/04/26 14:22:32;;;;;;;4.13;1.55;;;589.60;1280.00;;;;;;5112965;28;20026;-77
2022/04/26 14:25:08;;;;;;;3.03;1.30;;;589.60;1280.00;;;;;;5095433;28;20031;-78
2022/04/26 14:27:35;;;;;;;2.60;1.10;;;589.60;1254.40;;;;;;5095377;28;20092;-78
2022/04/26 14:30:03;;;;;;;2.50;1.15;;;589.60;1254.40;;;;;;5113630;28;20559;-78
2022/04/26 14:32:29;;;;;;;3.25;1.17;;;589.30;1228.80;;;;;;5095000;28;20027;-78
2022/04/26 14:34:55;;;;;;;3.30;1.13;;;589.40;1280.00;;;;;;5095244;28;20082;-77
2022/04/26 14:37:22;;;;;;;2.75;1.20;;;589.60;1280.00;;;;;;5113816;28;20472;-78
2022/04/26 14:39:49;;;;;;;2.63;1.20;;;589.60;1254.40;;;;;;5113164;28;20039;-77
2022/04/26 14:42:16;;;;;;;4.35;1.50;;;589.70;1254.40;;;;;;5112940;28;20024;-78
2022/04/26 14:44:41;;;;;;;2.42;0.82;;;614.40;1254.40;;;;;;5112801;28;20027;-78
2022/04/26 14:47:07;;;;;;;2.80;1.20;;;614.40;1228.80;;;;;;5113118;28;20026;-77
2022/04/26 14:49:34;;;;;;;4.38;1.67;;;614.40;1254.40;;;;;;5094539;28;20023;-77
2022/04/26 14:52:00;;;;;;;3.45;1.15;;;614.40;1228.80;;;;;;5112984;28;20058;-78
2022/04/26 14:54:26;;;;;;;2.42;1.13;;;614.50;1254.40;;;;;;5092924;28;20023;-77
2022/04/26 14:56:52;;;;;;;4.90;1.20;;;614.70;1228.80;;;;;;5113009;28;20027;-77
2022/04/26 14:59:22;;;;;;;3.30;1.20;;;614.80;1228.80;;;;;;5104918;28;20531;-77
2022/04/26 15:01:49;;;;;;;3.17;1.48;;;614.70;1228.80;;;;;;5093258;28;20467;-78
2022/04/26 15:04:25;;;;;;;16.35;3.30;;;614.50;1254.40;;;;;;5108524;28;20163;-78
2022/04/26 15:06:52;;;;;;;4.18;1.83;;;614.70;1254.40;;;;;;5074901;28;20024;-78
2022/04/26 15:17:32;;;;;;;3.28;2.13;;;615.30;1254.40;;;;;;5093160;28;20077;-78
2022/04/26 15:19:58;;;;;;;4.53;1.60;;;615.20;1228.80;;;;;;5092991;28;20032;-78
2022/04/26 15:22:24;;;;;;;5.95;2.00;;;615.20;1228.80;;;;;;5075313;28;20434;-76
2022/04/26 15:24:51;;;;;;;4.95;2.50;;;615.00;1254.40;;;;;;5091883;28;20151;-75
2022/04/26 15:27:18;;;;;;;4.25;2.30;;;615.00;1254.40;;;;;;5093422;28;20476;-76
2022/04/26 15:29:45;;;;;;;3.17;1.88;;;614.90;1254.40;;;;;;5108840;28;20032;-77
2022/04/26 15:32:11;;;;;;;5.45;2.60;;;614.90;1228.80;;;;;;5109060;28;20020;-76
2022/04/26 15:34:37;;;;;;;5.30;2.60;;;614.90;1254.40;;;;;;5108876;28;20040;-75
2022/04/26 15:37:04;;;;;;;3.47;1.75;;;614.90;1280.00;;;;;;5093346;28;20030;-77
2022/04/26 15:39:30;;;;;;;6.40;2.60;;;614.80;1254.40;;;;;;5093092;28;20392;-71
2022/04/26 15:41:56;;;;;;;3.00;1.40;;;614.80;1254.40;;;;;;5099798;28;20020;-78
2022/04/26 15:44:23;;;;;;;3.00;1.52;;;614.70;1254.40;;;;;;5100031;28;20020;-78
2022/04/26 15:46:52;;;;;;;3.75;1.45;;;614.70;1280.00;;;;;;5081541;28;20024;-77
2022/04/26 15:49:20;;;;;;;4.13;2.22;;;614.50;1280.00;;;;;;5081518;28;20119;-78
2022/04/26 15:51:47;;;;;;;4.03;2.63;;;614.40;1280.00;;;;;;5115884;28;20020;-79
2022/04/26 15:54:15;;;;;;;6.53;3.13;;;589.70;1280.00;;;;;;5100006;28;20047;-79
2022/04/26 15:56:42;;;;;;;4.65;1.98;;;589.60;1305.60;;;;;;5081944;28;20020;-78
2022/04/26 15:59:09;;;;;;;3.95;2.33;;;589.60;1331.20;;;;;;5081709;28;20086;-78
2022/04/26 16:01:42;;;;;;;5.38;2.33;;;589.40;1356.80;;;;;;5099816;28;20027;-79
2022/04/26 16:04:10;;;;;;;9.38;2.90;;;589.50;1356.80;;;;;;5099982;28;20395;-78
2022/04/26 16:06:37;;;;;;;5.47;2.60;;;589.30;1356.80;;;;;;5081939;28;20024;-79
2022/04/26 16:22:48;;;;;;;3.78;2.00;;;588.90;1356.80;;;;;;5099894;28;20492;-79
2022/04/26 16:25:15;;;;;;;3.03;1.90;;;588.80;1382.40;;;;;;5081542;28;20032;-78
2022/04/26 16:27:42;;;;;;;3.95;2.63;;;564.10;1408.00;;;;;;5081510;28;20027;-79
2022/04/26 16:30:12;;;;;;;4.13;2.33;;;588.80;1408.00;;;;;;5099382;28;20380;-78
2022/04/26 16:32:38;;;;;;;3.95;2.10;;;564.10;1382.40;;;;;;5081479;28;20024;-79
2022/04/26 16:35:06;;;;;;;5.40;2.70;;;564.10;1382.40;;;;;;5081330;28;20054;-78
2022/04/26 16:37:32;;;;;;;4.65;2.58;;;564.10;1382.40;;;;;;5115355;28;20032;-78
2022/04/26 16:39:59;;;;;;;5.65;2.65;;;564.00;1382.40;;;;;;5101059;28;20040;-78
2022/04/26 16:42:25;;;;;;;7.30;2.47;;;564.00;1382.40;;;;;;5082550;28;20027;-78
2022/04/26 16:44:50;;;;;;;3.78;1.80;;;563.90;1408.00;;;;;;5082877;28;20024;-78
2022/04/26 16:47:16;;;;;;;6.47;2.20;;;563.70;1408.00;;;;;;5082897;28;20027;-77
2022/04/26 16:49:42;;;;;;;7.32;2.25;;;563.70;1408.00;;;;;;5100570;28;20073;-78
2022/04/26 16:52:08;;;;;;;6.45;2.33;;;563.70;1433.60;;;;;;5080255;28;20380;-78
2022/04/26 16:54:33;;;;;;;8.13;3.10;;;563.70;1433.60;;;;;;5079793;28;20028;-78
2022/04/26 16:57:01;;;;;;;4.38;2.33;;;563.60;1433.60;;;;;;5078926;28;20031;-77
2022/04/26 16:59:29;;;;;;;4.13;2.30;;;563.50;1459.20;;;;;;5078894;28;20043;-77
2022/04/26 17:01:58;;;;;;;4.97;2.17;;;563.40;1459.20;;;;;;5078817;28;20031;-78
2022/04/26 17:04:24;;;;;;;4.85;2.50;;;563.30;1484.80;;;;;;5096836;28;20046;-78
2022/04/26 17:06:50;;;;;;;3.80;2.08;;;563.30;1484.80;;;;;;5095165;28;20020;-78
2022/04/26 17:09:20;;;;;;;6.00;2.40;;;563.20;1536.00;;;;;;5111744;28;20066;-78
2022/04/26 17:11:49;;;;;;;11.43;2.58;;;538.50;1459.20;;;;;;5094488;28;20030;-78
2022/04/26 17:14:17;;;;;;;6.43;1.95;;;538.40;1484.80;;;;;;5111699;28;20024;-78
2022/04/26 17:16:45;;;;;;;8.40;2.75;;;538.30;1459.20;;;;;;5095798;28;20020;-78
2022/04/26 17:19:12;;;;;;;7.97;2.85;;;538.20;1484.80;;;;;;5095757;28;20032;-77